createdAt,value
2022-09-15T00:01:03.618Z,82.77
2022-09-15T00:03:30.116Z,81.29
2022-09-15T00:05:56.671Z,81.22
2022-09-15T00:08:23.785Z,81.94
2022-09-15T00:10:57.329Z,81.61
2022-09-15T00:13:25.525Z,81.43
2022-09-15T00:15:52.094Z,81.74
2022-09-15T00:18:18.785Z,82.40
2022-09-15T00:20:45.808Z,82.17
2022-09-15T00:23:14.155Z,82.53
2022-09-15T00:25:49.299Z,83.32
2022-09-15T00:28:17.803Z,84.02
2022-09-15T00:30:46.961Z,83.03
2022-09-15T00:33:14.914Z,81.91
2022-09-15T00:35:44.315Z,81.64
2022-09-15T00:38:12.165Z,79.67
2022-09-15T00:40:50.970Z,78.57
2022-09-15T00:43:19.942Z,77.06
2022-09-15T00:45:46.488Z,78.04
2022-09-15T00:48:22.390Z,76.12
2022-09-15T00:50:56.411Z,75.53
2022-09-15T00:53:24.007Z,74.44
2022-09-15T00:55:51.088Z,73.55
2022-09-15T00:58:24.311Z,72.02
2022-09-15T01:00:58.837Z,70.35
2022-09-15T01:03:26.751Z,68.56
2022-09-15T01:05:58.473Z,69.34
2022-09-15T01:08:34.717Z,69.60
2022-09-15T01:11:02.648Z,70.71
2022-09-15T01:13:29.770Z,69.61
2022-09-15T01:16:29.751Z,70.12
2022-09-15T01:19:33.558Z,69.94
2022-09-15T01:22:33.766Z,71.32
2022-09-15T01:25:26.290Z,70.49
2022-09-15T01:28:39.261Z,71.05
2022-09-15T01:31:28.274Z,74.40
2022-09-15T01:34:20.825Z,77.72
2022-09-15T01:36:56.646Z,80.83
2022-09-15T01:39:30.230Z,82.07
2022-09-15T01:42:03.645Z,83.57
2022-09-15T01:44:36.278Z,81.90
2022-09-15T01:47:06.267Z,81.39
2022-09-15T01:49:53.679Z,79.67
2022-09-15T01:52:23.263Z,79.82
2022-09-15T01:54:57.398Z,78.77
2022-09-15T01:57:24.137Z,79.40
2022-09-15T01:59:53.957Z,78.13
2022-09-15T02:02:29.900Z,77.53
2022-09-15T02:05:25.326Z,74.76
2022-09-15T02:07:58.091Z,73.46
2022-09-15T02:10:45.737Z,72.96
2022-09-15T02:13:35.869Z,70.19
2022-09-15T02:16:02.311Z,68.72
2022-09-15T02:18:30.452Z,69.01
2022-09-15T02:21:18.112Z,68.74
2022-09-15T02:23:57.052Z,68.20
2022-09-15T02:26:28.618Z,68.57
2022-09-15T02:28:58.458Z,69.42
2022-09-15T02:31:26.959Z,70.50
2022-09-15T02:34:01.130Z,71.46
2022-09-15T02:36:29.359Z,71.80
2022-09-15T02:39:08.400Z,73.42
2022-09-15T02:41:36.655Z,73.97
2022-09-15T02:44:03.689Z,74.62
2022-09-15T02:46:30.232Z,75.25
2022-09-15T02:48:56.991Z,76.28
2022-09-15T02:51:23.452Z,77.49
2022-09-15T02:53:49.930Z,76.60
2022-09-15T02:56:16.998Z,76.40
2022-09-15T02:58:43.548Z,76.89
2022-09-15T03:01:15.668Z,76.54
2022-09-15T03:03:44.002Z,75.34
2022-09-15T03:06:17.344Z,75.07
2022-09-15T03:08:54.754Z,75.69
2022-09-15T03:11:24.269Z,75.76
2022-09-15T03:13:55.721Z,75.21
2022-09-15T03:16:22.779Z,75.56
2022-09-15T03:18:49.291Z,75.84
2022-09-15T03:21:17.291Z,76.67
2022-09-15T03:23:43.681Z,75.61
2022-09-15T03:26:11.015Z,75.71
2022-09-15T03:28:38.846Z,75.65
2022-09-15T03:31:07.348Z,75.75
2022-09-15T03:33:33.933Z,76.73
2022-09-15T03:36:00.429Z,75.52
2022-09-15T03:38:26.823Z,77.35
2022-09-15T03:40:57.333Z,75.68
2022-09-15T03:43:23.727Z,75.22
2022-09-15T03:45:50.145Z,75.12
2022-09-15T03:48:17.308Z,74.79
2022-09-15T03:50:43.648Z,73.48
2022-09-15T03:53:09.965Z,73.10
2022-09-15T03:55:36.361Z,73.77
2022-09-15T03:58:02.732Z,73.19
2022-09-15T04:00:29.322Z,73.94
2022-09-15T04:02:55.785Z,75.35
2022-09-15T04:05:22.132Z,75.50
2022-09-15T04:07:50.232Z,75.25
2022-09-15T04:10:16.843Z,74.54
2022-09-15T04:12:44.258Z,74.39
2022-09-15T04:15:10.792Z,73.48
2022-09-15T04:17:37.378Z,73.12
2022-09-15T04:20:03.935Z,73.81
2022-09-15T04:22:32.081Z,73.51
2022-09-15T04:24:58.643Z,72.73
2022-09-15T04:27:25.030Z,74.12
2022-09-15T04:29:52.518Z,73.21
2022-09-15T04:32:20.397Z,74.17
2022-09-15T04:34:47.075Z,73.21
2022-09-15T04:37:13.432Z,73.26
2022-09-15T04:39:39.801Z,74.50
2022-09-15T04:42:07.762Z,75.10
2022-09-15T04:44:34.441Z,75.80
2022-09-15T04:47:00.898Z,75.36
2022-09-15T04:49:28.623Z,78.39
2022-09-15T04:51:55.249Z,81.38
2022-09-15T04:54:21.639Z,86.51
2022-09-15T04:56:48.865Z,89.96
2022-09-15T04:59:16.988Z,91.92
2022-09-15T05:01:43.762Z,95.49
2022-09-15T05:04:10.217Z,95.22
2022-09-15T05:06:37.832Z,96.22
2022-09-15T05:09:10.025Z,95.11
2022-09-15T05:11:37.459Z,95.02
2022-09-15T05:14:03.884Z,96.79
2022-09-15T05:16:31.259Z,97.88
2022-09-15T05:19:00.402Z,99.32
2022-09-15T05:21:27.932Z,98.46
2022-09-15T05:23:55.125Z,100.00
2022-09-15T05:26:23.962Z,99.14
2022-09-15T05:28:50.324Z,97.19
2022-09-15T05:31:26.632Z,96.68
2022-09-15T05:33:53.906Z,94.91
2022-09-15T05:36:24.934Z,93.86
2022-09-15T05:38:53.669Z,91.60
2022-09-15T05:41:20.760Z,92.61
2022-09-15T05:43:48.556Z,93.09
2022-09-15T05:46:16.671Z,96.81
2022-09-15T05:48:43.695Z,100.00
2022-09-15T05:51:10.046Z,100.00
2022-09-15T05:53:37.314Z,100.00
2022-09-15T05:56:06.902Z,100.00
2022-09-15T05:58:34.002Z,100.00
2022-09-15T06:01:07.544Z,100.00
2022-09-15T06:03:35.278Z,100.00
2022-09-15T06:06:03.464Z,100.00
2022-09-15T06:08:34.322Z,100.00
2022-09-15T06:11:03.351Z,100.00
2022-09-15T06:13:29.716Z,100.00
2022-09-15T06:16:01.482Z,100.00
2022-09-15T06:18:27.942Z,100.00
2022-09-15T06:20:54.271Z,100.00
2022-09-15T06:23:20.620Z,100.00
2022-09-15T06:25:46.962Z,100.00
2022-09-15T06:28:13.321Z,98.31
2022-09-15T06:30:40.269Z,98.63
2022-09-15T06:33:06.784Z,98.61
2022-09-15T06:35:33.135Z,98.16
2022-09-15T06:37:59.458Z,100.00
2022-09-15T06:40:25.899Z,100.00
2022-09-15T06:42:56.930Z,100.00
2022-09-15T06:45:23.291Z,100.00
2022-09-15T06:48:13.412Z,100.00
2022-09-15T06:50:38.303Z,100.00
2022-09-15T06:53:04.659Z,100.00
2022-09-15T06:55:31.024Z,100.00
2022-09-15T06:57:57.478Z,99.54
2022-09-15T07:00:23.828Z,98.30
2022-09-15T07:02:50.280Z,100.00
2022-09-15T07:05:17.225Z,96.50
2022-09-15T07:07:43.737Z,94.78
2022-09-15T07:10:10.066Z,92.18
2022-09-15T07:12:37.148Z,89.63
2022-09-15T07:15:03.760Z,89.44
2022-09-15T07:17:30.166Z,89.32
2022-09-15T07:19:56.602Z,87.38
2022-09-15T07:22:24.537Z,85.48
2022-09-15T07:24:50.873Z,88.17
2022-09-15T07:27:17.201Z,86.62
2022-09-15T07:29:43.808Z,90.54
2022-09-15T07:32:10.232Z,88.96
2022-09-15T07:34:36.583Z,88.03
2022-09-15T07:37:03.024Z,82.27
2022-09-15T07:39:29.385Z,78.17
2022-09-15T07:41:55.744Z,76.23
2022-09-15T07:44:22.112Z,74.65
2022-09-15T07:46:48.451Z,75.53
2022-09-15T07:49:14.813Z,79.42
2022-09-15T07:51:41.227Z,80.33
2022-09-15T07:54:07.569Z,80.02
2022-09-15T07:56:34.182Z,78.58
2022-09-15T07:59:00.530Z,77.13
2022-09-15T08:01:27.058Z,75.24
2022-09-15T08:03:53.723Z,75.06
2022-09-15T08:06:22.949Z,71.11
2022-09-15T08:08:51.278Z,71.07
2022-09-15T08:11:20.864Z,69.41
2022-09-15T08:13:49.618Z,69.57
2022-09-15T08:16:24.278Z,68.55
2022-09-15T08:18:53.485Z,69.40
2022-09-15T08:21:21.794Z,68.56
2022-09-15T08:23:54.009Z,70.82
2022-09-15T08:26:20.497Z,69.62
2022-09-15T08:28:47.127Z,69.56
2022-09-15T08:31:14.354Z,69.09
2022-09-15T08:33:45.510Z,68.72
2022-09-15T08:36:12.730Z,67.11
2022-09-15T08:38:44.360Z,66.30
2022-09-15T08:41:31.527Z,64.53
2022-09-15T08:44:01.097Z,65.36
2022-09-15T08:46:54.010Z,66.13
2022-09-15T08:49:50.511Z,66.82
2022-09-15T08:52:28.138Z,67.78
2022-09-15T08:54:57.965Z,67.51
2022-09-15T08:57:26.075Z,64.65
2022-09-15T08:59:54.419Z,63.76
2022-09-15T09:02:37.900Z,61.91
2022-09-15T09:05:24.942Z,61.80
2022-09-15T09:08:29.397Z,60.67
2022-09-15T09:11:26.442Z,61.04
2022-09-15T09:14:22.676Z,62.67
2022-09-15T09:17:01.105Z,67.94
2022-09-15T09:19:50.007Z,69.65
2022-09-15T09:22:21.765Z,68.97
2022-09-15T09:24:51.477Z,65.67
2022-09-15T09:27:23.010Z,65.46
2022-09-15T09:29:55.223Z,67.39
2022-09-15T09:32:32.186Z,69.78
2022-09-15T09:35:05.183Z,68.73
2022-09-15T09:37:33.053Z,72.27
2022-09-15T09:39:59.495Z,74.46
2022-09-15T09:42:31.317Z,76.16
2022-09-15T09:44:57.937Z,77.82
2022-09-15T09:47:29.673Z,77.90
2022-09-15T09:49:56.090Z,78.87
2022-09-15T09:52:36.802Z,75.44
2022-09-15T09:55:24.048Z,76.60
2022-09-15T09:57:51.049Z,76.45
2022-09-15T10:00:38.866Z,75.83
2022-09-15T10:03:19.280Z,75.53
2022-09-15T10:06:00.521Z,74.41
2022-09-15T10:08:27.056Z,73.58
2022-09-15T10:10:55.938Z,73.35
2022-09-15T10:13:22.453Z,70.06
2022-09-15T10:15:59.222Z,70.54
2022-09-15T10:18:30.499Z,64.45
2022-09-15T10:20:57.503Z,61.69
2022-09-15T10:23:29.588Z,67.07
2022-09-15T10:26:17.112Z,66.39
2022-09-15T10:28:44.924Z,65.94
2022-09-15T10:31:24.163Z,63.21
2022-09-15T10:33:50.553Z,62.27
2022-09-15T10:36:22.364Z,63.96
2022-09-15T10:38:57.589Z,60.14
2022-09-15T10:41:31.724Z,58.89
2022-09-15T10:44:04.169Z,55.86
2022-09-15T10:46:49.371Z,57.95
2022-09-15T10:49:34.506Z,57.30
2022-09-15T10:52:35.451Z,57.79
2022-09-15T10:55:51.210Z,59.71
2022-09-15T10:58:29.200Z,58.62
2022-09-15T11:01:04.677Z,57.69
2022-09-15T11:03:49.989Z,57.49
2022-09-15T11:06:34.857Z,57.33
2022-09-15T11:09:18.573Z,58.50
2022-09-15T11:12:27.151Z,60.50
2022-09-15T11:15:07.002Z,59.82
2022-09-15T11:18:08.881Z,60.91
2022-09-15T11:21:07.649Z,60.97
2022-09-15T11:23:40.221Z,59.10
2022-09-15T11:26:35.997Z,58.63
2022-09-15T11:29:29.396Z,58.87
2022-09-15T11:32:04.207Z,58.35
2022-09-15T11:34:38.998Z,54.85
2022-09-15T11:37:12.952Z,52.26
2022-09-15T11:39:50.132Z,52.66
2022-09-15T11:42:30.678Z,54.90
2022-09-15T11:44:59.470Z,53.96
2022-09-15T11:47:39.926Z,54.65
2022-09-15T11:50:20.972Z,51.68
2022-09-15T11:53:19.353Z,51.68
2022-09-15T11:55:55.663Z,51.24
2022-09-15T11:59:01.368Z,49.89
2022-09-15T12:01:35.564Z,49.11
2022-09-15T12:04:15.433Z,50.82
2022-09-15T12:06:54.183Z,52.87
2022-09-15T12:09:21.796Z,52.54
2022-09-15T12:11:52.878Z,50.46
2022-09-15T12:14:35.861Z,51.57
2022-09-15T12:17:05.681Z,51.73
2022-09-15T12:19:33.312Z,50.64
2022-09-15T12:22:18.063Z,49.28
2022-09-15T12:24:57.804Z,49.45
2022-09-15T12:27:27.274Z,48.38
2022-09-15T12:29:56.193Z,50.68
2022-09-15T12:32:27.602Z,50.19
2022-09-15T12:35:01.531Z,50.54
2022-09-15T12:37:45.706Z,50.32
2022-09-15T12:40:30.402Z,51.91
2022-09-15T12:42:57.448Z,52.86
2022-09-15T12:45:29.995Z,52.85
2022-09-15T12:48:14.830Z,54.72
2022-09-15T12:50:43.248Z,56.65
2022-09-15T12:53:20.829Z,58.09
2022-09-15T12:56:00.014Z,58.37
2022-09-15T12:58:39.138Z,60.48
2022-09-15T13:01:27.146Z,59.75
2022-09-15T13:03:54.983Z,59.25
2022-09-15T13:06:26.468Z,58.13
2022-09-15T13:09:01.983Z,57.12
2022-09-15T13:11:36.769Z,55.91
2022-09-15T13:14:03.250Z,56.46
2022-09-15T13:16:34.577Z,56.18
2022-09-15T13:19:12.314Z,58.85
2022-09-15T13:21:43.100Z,59.22
2022-09-15T13:24:20.236Z,60.58
2022-09-15T13:26:54.567Z,60.12
2022-09-15T13:29:22.088Z,60.97
2022-09-15T13:31:57.807Z,60.43
2022-09-15T13:38:15.046Z,63.71
2022-09-15T13:40:52.017Z,66.12
2022-09-15T13:43:56.110Z,66.41
2022-09-15T13:46:59.521Z,67.22
2022-09-15T13:49:47.641Z,64.05
2022-09-15T13:52:23.071Z,60.60
2022-09-15T13:55:09.449Z,59.33
2022-09-15T14:00:42.411Z,53.93
2022-09-15T14:03:13.689Z,55.95
2022-09-15T14:05:40.528Z,56.44
2022-09-15T14:08:13.617Z,56.25
2022-09-15T14:10:47.147Z,58.27
2022-09-15T14:13:18.058Z,56.02
2022-09-15T14:15:58.260Z,54.53
2022-09-15T14:18:25.410Z,52.58
2022-09-15T14:21:05.259Z,50.14
2022-09-15T14:23:32.775Z,53.05
2022-09-15T14:26:01.478Z,50.68
2022-09-15T14:28:33.457Z,47.96
2022-09-15T14:31:01.574Z,48.72
2022-09-15T14:33:46.935Z,48.71
2022-09-15T14:36:22.274Z,49.04
2022-09-15T14:39:18.439Z,47.11
2022-09-15T14:41:45.463Z,47.89
2022-09-15T14:47:28.367Z,48.00
2022-09-15T14:50:20.368Z,51.05
2022-09-15T14:53:08.507Z,53.99
2022-09-15T14:55:53.189Z,56.03
2022-09-15T14:58:59.033Z,55.83
2022-09-15T15:01:34.308Z,57.06
2022-09-15T15:04:20.811Z,57.91
2022-09-15T15:06:53.126Z,58.08
2022-09-15T15:09:35.438Z,56.80
2022-09-15T15:12:11.374Z,58.29
2022-09-15T15:14:37.973Z,58.49
2022-09-15T15:17:08.363Z,61.38
2022-09-15T15:19:38.608Z,60.26
2022-09-15T15:22:13.975Z,60.85
2022-09-15T15:24:43.866Z,61.10
2022-09-15T15:27:31.935Z,62.20
2022-09-15T15:30:19.394Z,68.10
2022-09-15T15:32:45.912Z,76.37
2022-09-15T15:35:19.572Z,78.10
2022-09-15T15:37:47.264Z,78.06
2022-09-15T15:40:19.341Z,80.28
2022-09-15T15:42:57.868Z,79.17
2022-09-15T15:45:30.369Z,80.59
2022-09-15T15:47:57.349Z,81.98
2022-09-15T15:50:26.092Z,79.79
2022-09-15T15:52:53.017Z,77.87
2022-09-15T15:55:24.966Z,77.78
2022-09-15T15:57:54.194Z,81.02
2022-09-15T16:00:32.693Z,79.64
2022-09-15T16:02:59.126Z,80.16
2022-09-15T16:05:27.958Z,83.28
2022-09-15T16:07:56.467Z,80.71
2022-09-15T16:10:28.002Z,79.20
2022-09-15T16:12:54.367Z,77.92
2022-09-15T16:15:21.705Z,76.42
2022-09-15T16:17:49.134Z,74.31
2022-09-15T16:20:16.792Z,73.84
2022-09-15T16:22:43.743Z,71.90
2022-09-15T16:25:15.805Z,71.51
2022-09-15T16:27:42.386Z,72.28
2022-09-15T16:30:11.897Z,71.96
2022-09-15T16:32:39.859Z,73.28
2022-09-15T16:35:29.282Z,83.25
2022-09-15T16:37:55.734Z,84.23
2022-09-15T16:40:22.150Z,90.56
2022-09-15T16:42:48.843Z,92.65
2022-09-15T16:45:24.854Z,93.78
2022-09-15T16:47:51.255Z,97.88
2022-09-15T16:50:17.918Z,96.64
2022-09-15T16:52:44.281Z,92.47
2022-09-15T16:55:31.198Z,92.63
2022-09-15T16:57:57.798Z,90.46
2022-09-15T17:00:24.289Z,85.44
2022-09-15T17:02:50.723Z,83.15
2022-09-15T17:05:48.524Z,84.29
2022-09-15T17:08:16.731Z,84.61
2022-09-15T17:10:43.766Z,85.18
2022-09-15T17:13:15.786Z,85.39
2022-09-15T17:15:42.723Z,85.07
2022-09-15T17:18:10.005Z,86.10
2022-09-15T17:20:39.290Z,85.76
2022-09-15T17:23:23.243Z,88.65
2022-09-15T17:25:52.731Z,92.04
2022-09-15T17:28:22.263Z,97.36
2022-09-15T17:31:00.225Z,100.00
2022-09-15T17:33:28.326Z,100.00
2022-09-15T17:35:55.117Z,98.55
2022-09-15T17:38:21.914Z,96.41
2022-09-15T17:40:49.782Z,96.66
2022-09-15T17:43:21.325Z,97.93
2022-09-15T17:45:49.279Z,98.19
2022-09-15T17:48:16.170Z,100.00
2022-09-15T17:50:43.454Z,100.00
2022-09-15T17:53:13.209Z,100.00
2022-09-15T17:55:39.968Z,99.77
2022-09-15T17:58:06.674Z,97.72
2022-09-15T18:00:35.794Z,98.85
2022-09-15T18:03:05.845Z,100.00
2022-09-15T18:05:35.002Z,100.00
2022-09-15T18:08:04.969Z,99.68
2022-09-15T18:10:34.316Z,98.67
2022-09-15T18:13:01.818Z,98.00
2022-09-15T18:15:31.003Z,96.94
2022-09-15T18:18:01.983Z,92.06
2022-09-15T18:20:30.339Z,91.71
2022-09-15T18:22:56.886Z,90.64
2022-09-15T18:25:25.433Z,92.18
2022-09-15T18:27:52.100Z,92.85
2022-09-15T18:30:19.871Z,90.60
2022-09-15T18:32:46.702Z,91.38
2022-09-15T18:35:18.339Z,88.02
2022-09-15T18:37:46.958Z,86.60
2022-09-15T18:40:15.566Z,85.21
2022-09-15T18:42:43.086Z,84.78
2022-09-15T18:45:12.574Z,90.10
2022-09-15T18:47:40.870Z,98.18
2022-09-15T18:50:07.700Z,100.00
2022-09-15T18:52:39.072Z,100.00
2022-09-15T18:55:07.317Z,100.00
2022-09-15T18:57:35.466Z,100.00
2022-09-15T19:00:07.513Z,100.00
2022-09-15T19:02:34.148Z,100.00
2022-09-15T19:05:00.904Z,99.47
2022-09-15T19:07:28.626Z,95.89
2022-09-15T19:09:56.722Z,95.71
2022-09-15T19:12:23.348Z,95.73
2022-09-15T19:14:49.843Z,98.52
2022-09-15T19:17:16.630Z,100.00
2022-09-15T19:19:43.417Z,100.00
2022-09-15T19:22:09.956Z,100.00
2022-09-15T19:24:36.811Z,100.00
2022-09-15T19:27:04.974Z,96.62
2022-09-15T19:29:34.836Z,92.23
2022-09-15T19:32:06.592Z,91.52
2022-09-15T19:34:33.117Z,90.22
2022-09-15T19:36:59.470Z,93.10
2022-09-15T19:39:26.027Z,96.09
2022-09-15T19:41:52.536Z,95.51
2022-09-15T19:44:18.860Z,93.79
2022-09-15T19:46:45.511Z,96.70
2022-09-15T19:49:12.576Z,98.19
2022-09-15T19:51:39.145Z,97.13
2022-09-15T19:54:06.224Z,100.00
2022-09-15T19:56:32.871Z,100.00
2022-09-15T19:58:59.836Z,100.00
2022-09-15T20:01:28.624Z,100.00
2022-09-15T20:03:56.297Z,100.00
2022-09-15T20:06:27.589Z,100.00
2022-09-15T20:08:58.170Z,100.00
2022-09-15T20:11:26.472Z,100.00
2022-09-15T20:13:54.214Z,99.42
2022-09-15T20:16:22.390Z,99.04
2022-09-15T20:18:50.365Z,99.37
2022-09-15T20:21:32.600Z,98.26
2022-09-15T20:24:05.979Z,99.37
2022-09-15T20:26:32.919Z,96.34
2022-09-15T20:29:01.612Z,96.08
2022-09-15T20:31:29.349Z,96.42
2022-09-15T20:33:56.145Z,99.02
2022-09-15T20:36:25.384Z,95.36
2022-09-15T20:38:53.396Z,94.00
2022-09-15T20:41:22.949Z,92.70
2022-09-15T20:43:50.517Z,91.84
2022-09-15T20:46:19.249Z,91.67
2022-09-15T20:48:46.544Z,89.53
2022-09-15T20:51:15.672Z,85.64
2022-09-15T20:53:44.457Z,83.85
2022-09-15T20:56:11.497Z,81.59
2022-09-15T20:58:38.406Z,80.52
2022-09-15T21:01:08.563Z,79.34
2022-09-15T21:03:37.271Z,79.84
2022-09-15T21:06:06.758Z,81.16
2022-09-15T21:08:34.379Z,80.02
2022-09-15T21:11:01.061Z,76.88
2022-09-15T21:13:29.769Z,77.61
2022-09-15T21:15:58.404Z,78.80
2022-09-15T21:18:35.093Z,83.25
2022-09-15T21:21:14.411Z,84.15
2022-09-15T21:23:48.736Z,88.02
2022-09-15T21:26:24.561Z,92.56
2022-09-15T21:28:51.636Z,91.68
2022-09-15T21:31:23.224Z,91.17
2022-09-15T21:33:50.142Z,90.58
2022-09-15T21:36:22.406Z,89.40
2022-09-15T21:38:51.045Z,89.80
2022-09-15T21:41:21.440Z,88.70
2022-09-15T21:43:49.472Z,91.70
2022-09-15T21:46:18.263Z,90.89
2022-09-15T21:48:47.177Z,92.73
2022-09-15T21:51:24.651Z,92.18
2022-09-15T21:53:53.088Z,91.09
2022-09-15T21:56:19.555Z,93.03
2022-09-15T21:58:46.030Z,93.55
2022-09-15T22:01:14.888Z,98.36
2022-09-15T22:03:44.615Z,100.00
2022-09-15T22:06:11.676Z,100.00
2022-09-15T22:08:39.629Z,100.00
2022-09-15T22:11:07.289Z,100.00
2022-09-15T22:13:36.297Z,100.00
2022-09-15T22:16:08.097Z,100.00
2022-09-15T22:18:38.487Z,100.00
2022-09-15T22:21:12.912Z,100.00
2022-09-15T22:23:40.142Z,100.00
2022-09-15T22:26:20.956Z,100.00
2022-09-15T22:28:48.299Z,100.00
2022-09-15T22:31:16.735Z,100.00
2022-09-15T22:33:43.448Z,100.00
2022-09-15T22:36:11.687Z,100.00
2022-09-15T22:38:38.602Z,100.00
2022-09-15T22:41:08.910Z,100.00
2022-09-15T22:43:36.692Z,100.00
2022-09-15T22:46:03.413Z,100.00
2022-09-15T22:48:30.075Z,100.00
2022-09-15T22:50:56.801Z,97.16
2022-09-15T22:53:23.489Z,95.67
2022-09-15T22:55:50.437Z,93.01
2022-09-15T22:58:16.910Z,91.46
2022-09-15T23:00:43.492Z,92.73
2022-09-15T23:03:11.277Z,91.17
2022-09-15T23:05:38.188Z,90.46
2022-09-15T23:08:04.711Z,90.86
2022-09-15T23:10:31.371Z,89.10
2022-09-15T23:12:58.914Z,88.88
2022-09-15T23:15:25.287Z,88.58
2022-09-15T23:17:51.692Z,89.23
2022-09-15T23:20:18.126Z,88.54
2022-09-15T23:22:44.446Z,90.33
2022-09-15T23:25:10.814Z,90.83
2022-09-15T23:27:37.167Z,91.60
2022-09-15T23:30:03.921Z,89.34
2022-09-15T23:32:30.298Z,94.80
2022-09-15T23:34:56.777Z,99.90
2022-09-15T23:37:23.139Z,100.00
2022-09-15T23:39:49.547Z,100.00
2022-09-15T23:42:18.915Z,100.00
2022-09-15T23:44:45.773Z,100.00
2022-09-15T23:47:12.148Z,100.00
2022-09-15T23:49:38.540Z,100.00
2022-09-15T23:52:04.917Z,100.00
2022-09-15T23:54:31.258Z,100.00
2022-09-15T23:56:57.658Z,100.00
2022-09-15T23:59:24.061Z,100.00
